Time;durP1;ratioP1;P1;durP2;ratioP2;P2;SDS_P1;SDS_P2;PMS_P1;PMS_P2;Temp;Humidity;BMP_temperature;BMP_pressure;BME280_temperature;BME280_humidity;BME280_pressure;Samples;Min_cycle;Max_cycle;Signal;HPM_P1;HPM_P2
2021/11/23 00:01:39;;;;;;;14.03;5.70;;;;;;;4.52;100.00;101918.78;7394759;19;20423;-44
2021/11/23 00:04:09;;;;;;;10.20;4.97;;;;;;;4.51;100.00;101912.78;7399595;19;20419;-44
2021/11/23 00:06:38;;;;;;;9.17;3.80;;;;;;;4.55;100.00;101914.84;7403965;19;20432;-48
2021/11/23 00:09:08;;;;;;;10.37;5.43;;;;;;;4.62;100.00;101915.34;7405156;19;20387;-45
2021/11/23 00:11:37;;;;;;;8.40;3.37;;;;;;;4.64;100.00;101914.72;7402164;19;20410;-45
2021/11/23 00:14:09;;;;;;;11.03;5.10;;;;;;;4.68;100.00;101921.00;7406617;19;20465;-47
2021/11/23 00:16:39;;;;;;;15.83;5.00;;;;;;;4.73;100.00;101915.47;7402645;19;20411;-44
2021/11/23 00:19:08;;;;;;;13.33;5.60;;;;;;;4.78;100.00;101914.97;7404648;19;20389;-44
2021/11/23 00:21:38;;;;;;;13.63;5.07;;;;;;;4.83;100.00;101921.38;7401845;19;20427;-49
2021/11/23 00:24:08;;;;;;;10.33;5.40;;;;;;;4.86;100.00;101913.94;7401979;19;20422;-44
2021/11/23 00:26:38;;;;;;;15.30;7.33;;;;;;;4.91;100.00;101914.38;7402611;19;20411;-43
2021/11/23 00:29:10;;;;;;;21.43;6.07;;;;;;;4.95;100.00;101909.63;7403990;19;20394;-44
2021/11/23 00:31:39;;;;;;;17.60;5.80;;;;;;;4.99;100.00;101916.75;7403968;19;20716;-43
2021/11/23 00:34:09;;;;;;;8.50;6.33;;;;;;;5.00;100.00;101912.56;7402292;19;20739;-48
2021/11/23 00:36:38;;;;;;;15.57;6.33;;;;;;;5.04;100.00;101900.91;7401935;19;20419;-49
2021/11/23 00:39:08;;;;;;;9.30;5.70;;;;;;;5.04;100.00;101895.78;7404699;19;20391;-51
2021/11/23 00:41:37;;;;;;;8.80;5.20;;;;;;;5.04;100.00;101912.06;7402911;19;20482;-53
2021/11/23 00:44:09;;;;;;;15.43;6.27;;;;;;;5.12;100.00;101920.34;7401474;19;20474;-46
2021/11/23 00:46:39;;;;;;;11.90;5.30;;;;;;;5.16;100.00;101911.25;7401928;19;20410;-51
2021/11/23 00:49:08;;;;;;;8.33;5.13;;;;;;;5.10;100.00;101919.31;7403902;19;20472;-51
2021/11/23 00:51:38;;;;;;;9.50;6.70;;;;;;;5.23;100.00;101904.22;7401789;19;20491;-49
2021/11/23 00:54:08;;;;;;;12.87;6.43;;;;;;;5.24;100.00;101903.44;7401190;19;20467;-49
2021/11/23 00:56:37;;;;;;;9.23;5.60;;;;;;;5.20;100.00;101903.97;7395031;19;20515;-50
2021/11/23 00:59:09;;;;;;;14.63;6.20;;;;;;;5.21;100.00;101894.63;7409128;19;20716;-52
2021/11/23 01:01:39;;;;;;;7.60;5.57;;;;;;;5.17;100.00;101896.03;7401146;19;20531;-46
2021/11/23 01:04:09;;;;;;;12.53;6.70;;;;;;;5.15;100.00;101900.13;7401295;19;20432;-52
2021/11/23 01:06:38;;;;;;;11.60;7.13;;;;;;;5.16;100.00;101896.81;7401724;19;20685;-50
2021/11/23 01:09:08;;;;;;;11.03;6.53;;;;;;;5.14;100.00;101901.78;7403132;19;20387;-50
2021/11/23 01:11:37;;;;;;;9.33;6.63;;;;;;;5.18;100.00;101897.81;7400271;19;20498;-51
2021/11/23 01:14:09;;;;;;;15.17;8.20;;;;;;;5.24;100.00;101903.44;7399592;19;20483;-52
2021/11/23 01:16:39;;;;;;;14.77;7.77;;;;;;;5.21;100.00;101910.88;7398851;19;20411;-52
2021/11/23 01:19:09;;;;;;;13.13;8.13;;;;;;;5.19;100.00;101917.53;7403440;19;20406;-45
2021/11/23 01:21:38;;;;;;;13.33;7.90;;;;;;;5.23;100.00;101913.56;7400022;19;20436;-46
2021/11/23 01:24:08;;;;;;;17.13;8.60;;;;;;;5.33;100.00;101917.78;7403641;19;20423;-45
2021/11/23 01:26:38;;;;;;;16.57;8.03;;;;;;;5.43;100.00;101912.59;7400216;19;20512;-49
2021/11/23 01:29:11;;;;;;;19.27;8.40;;;;;;;5.42;100.00;101915.06;7402136;19;20654;-44
2021/11/23 01:31:40;;;;;;;22.03;10.13;;;;;;;5.40;100.00;101917.50;7400186;19;20880;-45
2021/11/23 01:34:10;;;;;;;14.73;8.50;;;;;;;5.36;100.00;101910.31;7400384;19;20493;-44
2021/11/23 01:36:39;;;;;;;13.43;8.70;;;;;;;5.31;100.00;101903.94;7400612;19;20407;-45
2021/11/23 01:39:09;;;;;;;12.70;7.50;;;;;;;5.26;100.00;101899.34;7402054;19;20400;-48
2021/11/23 01:41:39;;;;;;;14.77;9.03;;;;;;;5.35;100.00;101900.88;7400225;19;20419;-46
2021/11/23 01:44:11;;;;;;;18.50;9.40;;;;;;;5.43;100.00;101898.94;7400079;19;20420;-46
2021/11/23 01:46:40;;;;;;;18.50;9.60;;;;;;;5.43;100.00;101904.06;7399171;19;20697;-48
2021/11/23 01:49:10;;;;;;;16.07;9.80;;;;;;;5.39;100.00;101903.78;7401932;19;20395;-47
2021/11/23 01:51:39;;;;;;;18.57;9.57;;;;;;;5.45;100.00;101890.63;7399493;19;20415;-45
2021/11/23 01:54:09;;;;;;;16.37;9.13;;;;;;;5.41;100.00;101896.25;7399582;19;20416;-45
2021/11/23 01:56:38;;;;;;;23.93;9.40;;;;;;;5.40;100.00;101897.03;7398422;19;20901;-46
2021/11/23 01:59:11;;;;;;;20.60;9.83;;;;;;;5.47;100.00;101899.31;7401339;19;20459;-45
2021/11/23 02:01:40;;;;;;;25.67;11.73;;;;;;;5.54;100.00;101896.47;7399012;19;20922;-44
2021/11/23 02:04:10;;;;;;;21.17;10.27;;;;;;;5.53;100.00;101894.69;7399459;19;20419;-47
2021/11/23 02:06:40;;;;;;;42.80;11.50;;;;;;;5.49;100.00;101897.75;7399136;19;20680;-46
2021/11/23 02:09:09;;;;;;;21.93;10.80;;;;;;;5.56;100.00;101894.03;7405369;19;20400;-46
2021/11/23 02:11:39;;;;;;;22.40;11.10;;;;;;;5.62;100.00;101891.97;7398962;19;20428;-45
2021/11/23 02:14:11;;;;;;;24.97;11.57;;;;;;;5.64;100.00;101894.66;7398739;19;20472;-50
2021/11/23 02:16:40;;;;;;;21.77;12.13;;;;;;;5.71;100.00;101901.16;7399235;19;20427;-44
2021/11/23 02:19:10;;;;;;;22.10;11.50;;;;;;;5.69;100.00;101903.56;7401042;19;20464;-51
2021/11/23 02:21:42;;;;;;;26.83;11.10;;;;;;;5.77;100.00;101904.19;7398721;19;20714;-48
2021/11/23 02:24:12;;;;;;;19.93;10.43;;;;;;;5.80;100.00;101899.34;7399191;19;20431;-44
2021/11/23 02:26:42;;;;;;;18.33;10.67;;;;;;;5.79;100.00;101898.41;7397561;19;20487;-48
2021/11/23 02:29:11;;;;;;;21.03;12.00;;;;;;;5.80;100.00;101895.09;7400354;19;20447;-45
2021/11/23 02:31:41;;;;;;;29.13;12.20;;;;;;;5.74;100.00;101892.03;7398868;19;20425;-46
2021/11/23 02:34:11;;;;;;;20.37;11.53;;;;;;;5.69;100.00;101885.66;7398867;19;20483;-45
2021/11/23 02:36:43;;;;;;;18.17;11.00;;;;;;;5.71;100.00;101889.25;7399704;19;20997;-46
2021/11/23 02:39:12;;;;;;;24.50;12.07;;;;;;;5.71;100.00;101889.25;7400350;19;20876;-49
2021/11/23 02:41:42;;;;;;;15.60;10.63;;;;;;;5.67;100.00;101890.66;7398403;19;20416;-46
2021/11/23 02:44:11;;;;;;;18.90;10.77;;;;;;;5.71;100.00;101889.25;7400539;19;20431;-46
2021/11/23 02:46:41;;;;;;;20.40;11.47;;;;;;;5.76;100.00;101884.47;7397669;19;20483;-53
2021/11/23 02:49:10;;;;;;;19.33;10.97;;;;;;;5.75;100.00;101891.25;7400278;19;20456;-50
2021/11/23 02:51:43;;;;;;;21.97;11.10;;;;;;;5.76;100.00;101879.34;7398468;19;20474;-49
2021/11/23 02:54:13;;;;;;;22.00;11.43;;;;;;;5.79;100.00;101882.16;7397854;19;20426;-48
2021/11/23 02:56:42;;;;;;;19.50;10.53;;;;;;;5.74;100.00;101874.09;7399431;19;20968;-47
2021/11/23 02:59:12;;;;;;;30.03;12.00;;;;;;;5.74;100.00;101879.22;7399406;19;20398;-49
2021/11/23 03:01:41;;;;;;;18.90;10.63;;;;;;;5.77;100.00;101873.47;7397098;19;20425;-47
2021/11/23 03:04:11;;;;;;;24.30;12.77;;;;;;;5.78;100.00;101876.16;7397567;19;20894;-49
2021/11/23 03:06:43;;;;;;;64.10;37.50;;;;;;;5.86;100.00;101873.28;7397160;19;20494;-45
2021/11/23 03:09:12;;;;;;;23.73;13.17;;;;;;;5.89;100.00;101866.75;7399117;19;20906;-46
2021/11/23 03:11:42;;;;;;;23.10;13.27;;;;;;;5.93;100.00;101860.19;7396670;19;20419;-44
2021/11/23 03:14:12;;;;;;;18.07;11.20;;;;;;;5.91;100.00;101848.94;7397341;19;20490;-49
2021/11/23 03:16:41;;;;;;;27.13;13.47;;;;;;;5.88;100.00;101854.72;7396424;19;20566;-44
2021/11/23 03:19:11;;;;;;;23.07;12.20;;;;;;;5.94;100.00;101856.84;7398650;19;20397;-43
2021/11/23 03:21:43;;;;;;;22.67;11.73;;;;;;;5.94;100.00;101856.84;7396334;19;20482;-44
2021/11/23 03:24:13;;;;;;;29.30;12.80;;;;;;;5.95;100.00;101859.53;7397029;19;20423;-44
2021/11/23 03:26:42;;;;;;;19.00;11.53;;;;;;;6.04;100.00;101863.63;7396910;19;20419;-44
2021/11/23 03:29:12;;;;;;;32.23;11.30;;;;;;;5.94;100.00;101852.63;7401179;19;20447;-43
2021/11/23 03:31:41;;;;;;;23.53;11.83;;;;;;;5.92;100.00;101855.84;7396276;19;20699;-44
2021/11/23 03:34:10;;;;;;;21.57;10.90;;;;;;;5.95;100.00;101850.97;7396653;19;20420;-45
2021/11/23 03:36:43;;;;;;;18.60;10.13;;;;;;;5.99;100.00;101855.53;7395951;19;20419;-43
2021/11/23 03:39:12;;;;;;;20.73;10.90;;;;;;;5.90;100.00;101854.84;7403001;19;20376;-44
2021/11/23 03:41:42;;;;;;;16.83;10.30;;;;;;;5.93;100.00;101855.06;7403441;19;20483;-50
2021/11/23 03:44:13;;;;;;;27.87;11.20;;;;;;;5.83;100.00;101850.88;7403138;19;20486;-48
2021/11/23 03:46:42;;;;;;;17.90;10.10;;;;;;;5.78;100.00;101834.25;7403701;19;20415;-51
2021/11/23 03:49:11;;;;;;;16.97;9.70;;;;;;;5.74;100.00;101832.25;7405954;19;20474;-47
2021/11/23 03:51:43;;;;;;;19.40;9.47;;;;;;;5.66;100.00;101834.22;7403558;19;20415;-47
2021/11/23 03:54:13;;;;;;;19.97;10.00;;;;;;;5.62;100.00;101840.75;7402781;19;20427;-48
2021/11/23 03:56:43;;;;;;;18.60;8.73;;;;;;;5.62;100.00;101843.31;7401925;19;20431;-50
2021/11/23 03:59:12;;;;;;;22.17;9.50;;;;;;;5.58;100.00;101837.84;7405190;19;20485;-51
2021/11/23 04:01:42;;;;;;;17.33;8.10;;;;;;;5.54;100.00;101845.25;7403123;19;20411;-53
2021/11/23 04:04:12;;;;;;;18.80;8.10;;;;;;;5.52;100.00;101846.81;7402552;19;20452;-45
2021/11/23 04:06:44;;;;;;;18.73;9.00;;;;;;;5.48;100.00;101843.88;7402869;19;20503;-51
2021/11/23 04:09:14;;;;;;;20.10;8.70;;;;;;;5.44;100.00;101842.72;7409538;19;20459;-50
2021/11/23 04:11:43;;;;;;;17.17;7.80;;;;;;;5.40;100.00;101845.81;7402582;19;20916;-51
2021/11/23 04:14:13;;;;;;;21.53;7.53;;;;;;;5.35;100.00;101852.25;7402152;19;20421;-52
2021/11/23 04:16:42;;;;;;;18.57;6.87;;;;;;;5.34;100.00;101850.44;7401350;19;20503;-49
2021/11/23 04:19:12;;;;;;;16.80;7.83;;;;;;;5.35;100.00;101862.47;7404822;19;20392;-52
2021/11/23 04:21:44;;;;;;;19.33;9.87;;;;;;;5.35;100.00;101858.25;7402270;19;20490;-51
2021/11/23 04:24:13;;;;;;;17.43;7.40;;;;;;;5.30;100.00;101863.75;7401874;19;20448;-49
2021/11/23 04:26:43;;;;;;;17.10;8.83;;;;;;;5.32;100.00;101864.81;7401895;19;20425;-51
2021/11/23 04:29:12;;;;;;;25.70;13.23;;;;;;;5.36;100.00;101859.13;7403925;19;20383;-50
2021/11/23 04:31:42;;;;;;;14.60;7.40;;;;;;;5.32;100.00;101872.47;7401606;19;20470;-47
2021/11/23 04:34:11;;;;;;;20.03;8.10;;;;;;;5.36;100.00;101869.38;7401429;19;20945;-45
2021/11/23 04:36:43;;;;;;;23.33;8.00;;;;;;;5.39;100.00;101877.31;7400944;19;20419;-43
2021/11/23 04:39:13;;;;;;;19.70;8.70;;;;;;;5.35;100.00;101877.84;7404094;19;20455;-46
2021/11/23 04:41:43;;;;;;;26.43;9.30;;;;;;;5.52;100.00;101872.41;7401827;19;20694;-46
2021/11/23 04:44:13;;;;;;;17.40;8.37;;;;;;;5.52;100.00;101877.53;7402840;19;20444;-48
2021/11/23 04:46:43;;;;;;;22.07;8.47;;;;;;;5.45;100.00;101890.63;7401829;19;20491;-45
2021/11/23 04:49:14;;;;;;;28.43;9.97;;;;;;;5.53;100.00;101889.56;7403006;19;20467;-48
2021/11/23 04:51:46;;;;;;;18.37;9.23;;;;;;;5.50;100.00;101896.09;7401311;19;20482;-45
2021/11/23 04:54:15;;;;;;;22.30;9.07;;;;;;;5.54;100.00;101881.09;7404706;19;20878;-43
2021/11/23 04:56:45;;;;;;;23.17;10.40;;;;;;;5.50;100.00;101893.53;7400540;19;20435;-44
2021/11/23 04:59:14;;;;;;;28.80;10.33;;;;;;;5.43;100.00;101889.56;7403263;19;20402;-44
2021/11/23 05:01:44;;;;;;;53.40;12.53;;;;;;;5.46;100.00;101882.16;7400969;19;20487;-43
2021/11/23 05:04:13;;;;;;;32.63;10.47;;;;;;;5.43;100.00;101894.69;7400797;19;20467;-44
2021/11/23 05:06:45;;;;;;;42.27;11.50;;;;;;;5.40;100.00;101897.91;7401042;19;20684;-45
2021/11/23 05:09:15;;;;;;;73.73;12.30;;;;;;;5.47;100.00;101899.31;7402879;19;20388;-44
2021/11/23 05:11:47;;;;;;;52.53;12.90;;;;;;;5.47;100.00;101894.19;7400857;19;20700;-44
2021/11/23 05:14:18;;;;;;;32.27;10.83;;;;;;;5.43;100.00;101891.25;7399887;19;20412;-50
2021/11/23 05:16:48;;;;;;;139.27;15.83;;;;;;;5.43;100.00;101889.56;7400869;19;20498;-45
2021/11/23 05:19:17;;;;;;;28.80;10.40;;;;;;;5.45;100.00;101890.63;7402561;19;20391;-46
2021/11/23 05:21:49;;;;;;;26.77;10.50;;;;;;;5.44;100.00;101883.69;7402501;19;20415;-45
2021/11/23 05:24:19;;;;;;;26.73;10.43;;;;;;;5.51;100.00;101898.78;7400623;19;20479;-48
2021/11/23 05:26:49;;;;;;;27.90;11.07;;;;;;;5.50;100.00;101902.09;7400589;19;20415;-44
2021/11/23 05:29:18;;;;;;;28.83;11.70;;;;;;;5.56;100.00;101890.56;7402291;19;20758;-46
2021/11/23 05:31:48;;;;;;;28.33;12.03;;;;;;;5.56;100.00;101890.56;7400408;19;20426;-47
2021/11/23 05:34:17;;;;;;;23.23;9.27;;;;;;;5.57;100.00;101885.56;7400109;19;20869;-47
2021/11/23 05:36:49;;;;;;;23.40;9.70;;;;;;;5.62;100.00;101883.38;7400375;19;20725;-45
2021/11/23 05:39:19;;;;;;;22.33;9.83;;;;;;;5.61;100.00;101886.72;7402302;19;20470;-48
2021/11/23 05:41:49;;;;;;;19.83;9.63;;;;;;;5.67;100.00;101887.19;7400452;19;20481;-49
2021/11/23 05:44:19;;;;;;;32.43;10.00;;;;;;;5.76;100.00;101887.94;7400131;19;20492;-48
2021/11/23 05:46:48;;;;;;;28.70;10.50;;;;;;;5.71;100.00;101891.81;7399985;19;20483;-47
2021/11/23 05:49:18;;;;;;;28.13;11.00;;;;;;;5.70;100.00;101892.59;7401947;19;20457;-46
2021/11/23 05:51:50;;;;;;;22.37;9.70;;;;;;;5.70;100.00;101881.44;7400366;19;21242;-47
2021/11/23 05:54:19;;;;;;;24.30;9.13;;;;;;;5.74;100.00;101884.34;7399780;19;20503;-44
2021/11/23 05:56:49;;;;;;;23.73;9.70;;;;;;;5.77;100.00;101888.81;7400062;19;20411;-47
2021/11/23 05:59:23;;;;;;;23.47;9.40;;;;;;;5.73;100.00;101887.69;7401613;19;20388;-44
2021/11/23 06:01:53;;;;;;;24.70;9.30;;;;;;;5.69;100.00;101890.78;7397876;19;20480;-48
2021/11/23 06:04:22;;;;;;;25.50;9.17;;;;;;;5.66;100.00;101886.28;7399410;19;20425;-45
2021/11/23 06:06:54;;;;;;;22.33;9.70;;;;;;;5.71;100.00;101890.91;7398988;19;20791;-48
2021/11/23 06:09:24;;;;;;;27.33;9.60;;;;;;;5.76;100.00;101892.16;7402226;19;20387;-46
2021/11/23 06:11:53;;;;;;;26.83;8.60;;;;;;;5.71;100.00;101891.81;7398116;19;20892;-49
2021/11/23 06:14:23;;;;;;;23.53;8.57;;;;;;;5.70;100.00;101895.16;7398965;19;20475;-47
2021/11/23 06:16:53;;;;;;;17.37;7.70;;;;;;;5.73;100.00;101895.38;7398543;19;20945;-48
2021/11/23 06:19:22;;;;;;;21.27;8.90;;;;;;;5.69;100.00;101898.44;7400593;19;20385;-46
2021/11/23 06:21:54;;;;;;;16.57;8.27;;;;;;;5.62;100.00;101894.53;7398821;19;20427;-48
2021/11/23 06:24:24;;;;;;;17.40;7.10;;;;;;;5.61;100.00;101894.38;7398557;19;20680;-52
2021/11/23 06:26:53;;;;;;;21.30;8.20;;;;;;;5.59;100.00;101894.25;7398425;19;20487;-51
2021/11/23 06:29:23;;;;;;;17.73;7.83;;;;;;;5.58;100.00;101897.59;7400007;19;20392;-51
2021/11/23 06:31:52;;;;;;;26.70;8.67;;;;;;;5.64;100.00;101899.78;7397743;19;20426;-46
2021/11/23 06:34:22;;;;;;;26.47;8.00;;;;;;;5.61;100.00;101913.22;7398154;19;20499;-53
2021/11/23 06:36:51;;;;;;;23.50;8.77;;;;;;;5.58;100.00;101906.97;7398483;19;20510;-46
2021/11/23 06:39:23;;;;;;;20.63;7.40;;;;;;;5.57;100.00;101900.03;7402051;19;20412;-45
2021/11/23 06:41:53;;;;;;;20.57;7.90;;;;;;;5.63;100.00;101905.63;7397317;19;20395;-45
2021/11/23 06:44:22;;;;;;;22.53;6.30;;;;;;;5.58;100.00;101896.72;7397884;19;20483;-44
2021/11/23 06:46:52;;;;;;;14.70;6.10;;;;;;;5.63;100.00;101895.41;7399071;19;20429;-46
2021/11/23 06:49:22;;;;;;;25.23;7.97;;;;;;;5.60;100.00;101898.63;7399486;19;20410;-48
2021/11/23 06:51:51;;;;;;;12.87;5.63;;;;;;;5.58;100.00;101896.72;7397569;19;20420;-47
2021/11/23 06:54:23;;;;;;;16.30;5.07;;;;;;;5.53;100.00;101893.75;7397318;19;20482;-53
2021/11/23 06:56:55;;;;;;;16.20;4.73;;;;;;;5.58;100.00;101902.72;7397361;19;20417;-48
2021/11/23 06:59:25;;;;;;;14.37;5.43;;;;;;;5.61;100.00;101899.50;7398014;19;20402;-51
2021/11/23 07:01:54;;;;;;;13.90;5.20;;;;;;;5.54;100.00;101891.34;7397061;19;20430;-51
2021/11/23 07:04:24;;;;;;;11.97;4.03;;;;;;;5.57;100.00;101910.28;7397455;19;20429;-50
2021/11/23 07:06:53;;;;;;;14.43;5.83;;;;;;;5.52;100.00;101913.38;7397268;19;20403;-51
2021/11/23 07:09:25;;;;;;;15.67;4.87;;;;;;;5.43;100.00;101915.16;7398840;19;20392;-52
2021/11/23 07:11:55;;;;;;;12.33;4.90;;;;;;;5.46;100.00;101912.88;7396478;19;20403;-52
2021/11/23 07:14:24;;;;;;;11.37;4.40;;;;;;;5.46;100.00;101914.53;7396943;19;20499;-51
2021/11/23 07:16:54;;;;;;;12.67;4.57;;;;;;;5.45;100.00;101921.34;7396823;19;20486;-49
2021/11/23 07:19:24;;;;;;;11.90;4.50;;;;;;;5.41;100.00;101921.84;7397194;19;20399;-50
2021/11/23 07:21:53;;;;;;;16.73;4.63;;;;;;;5.40;100.00;101932.84;7396511;19;20414;-49
2021/11/23 07:24:26;;;;;;;15.03;3.83;;;;;;;5.43;100.00;101927.97;7396620;19;20468;-52
2021/11/23 07:26:55;;;;;;;11.80;3.60;;;;;;;5.42;100.00;101931.31;7398181;19;20454;-50
2021/11/23 07:29:25;;;;;;;14.63;3.40;;;;;;;5.47;100.00;101932.59;7398125;19;20452;-51
2021/11/23 07:31:54;;;;;;;16.63;3.50;;;;;;;5.46;100.00;101938.47;7396281;19;20744;-50
2021/11/23 07:34:24;;;;;;;9.00;3.37;;;;;;;5.41;100.00;101939.75;7396455;19;20415;-53
2021/11/23 07:36:54;;;;;;;17.23;3.30;;;;;;;5.43;100.00;101945.00;7395909;19;20410;-53
2021/11/23 07:39:27;;;;;;;8.33;3.53;;;;;;;5.37;100.00;101938.63;7397419;19;20842;-53
2021/11/23 07:41:57;;;;;;;14.03;4.10;;;;;;;5.39;100.00;101946.44;7395999;19;20699;-53
2021/11/23 07:44:26;;;;;;;13.90;3.87;;;;;;;5.44;100.00;101940.00;7396377;19;20426;-50
2021/11/23 07:46:56;;;;;;;14.40;5.10;;;;;;;5.38;100.00;101930.16;7395928;19;20421;-49
2021/11/23 07:49:25;;;;;;;15.50;5.23;;;;;;;5.32;100.00;101939.03;7398483;19;20388;-45
2021/11/23 07:51:54;;;;;;;16.67;4.90;;;;;;;5.36;100.00;101947.06;7395758;19;20510;-50
2021/11/23 07:54:27;;;;;;;11.87;4.30;;;;;;;5.31;100.00;101943.22;7395757;19;20503;-47
2021/11/23 07:56:56;;;;;;;9.97;3.83;;;;;;;5.27;100.00;101944.66;7396043;19;20403;-44
2021/11/23 07:59:26;;;;;;;13.47;4.37;;;;;;;5.35;100.00;101949.50;7396473;19;20841;-46
2021/11/23 08:01:55;;;;;;;11.43;3.60;;;;;;;5.34;100.00;101947.72;7395452;19;20733;-45
2021/11/23 08:04:25;;;;;;;15.80;4.17;;;;;;;5.33;100.00;101948.50;7395484;19;20427;-50
2021/11/23 08:06:55;;;;;;;10.83;4.43;;;;;;;5.36;100.00;101949.63;7395862;19;20780;-48
2021/11/23 08:09:27;;;;;;;16.70;4.80;;;;;;;5.45;100.00;101949.50;7402361;19;20465;-44
2021/11/23 08:11:56;;;;;;;12.80;3.70;;;;;;;5.47;100.00;101949.59;7392825;19;20424;-50
2021/11/23 08:14:27;;;;;;;9.43;3.60;;;;;;;5.46;100.00;101958.97;7398676;19;20438;-49
2021/11/23 08:16:57;;;;;;;20.83;4.10;;;;;;;5.46;100.00;101961.50;7397280;19;20519;-45
2021/11/23 08:19:27;;;;;;;16.60;3.33;;;;;;;5.39;100.00;101951.56;7395679;19;20396;-44
2021/11/23 08:21:56;;;;;;;10.13;3.57;;;;;;;5.37;100.00;101964.22;7395387;19;20899;-43
2021/11/23 08:24:28;;;;;;;11.10;4.07;;;;;;;5.38;100.00;101965.09;7397090;19;20914;-47
2021/11/23 08:26:59;;;;;;;14.03;3.90;;;;;;;5.35;100.00;101964.84;7402723;19;20495;-47
2021/11/23 08:29:29;;;;;;;15.73;3.43;;;;;;;5.40;100.00;101971.25;7405211;19;20467;-44
2021/11/23 08:31:58;;;;;;;9.63;2.90;;;;;;;5.39;100.00;101962.66;7402132;19;20423;-45
2021/11/23 08:34:28;;;;;;;14.97;3.57;;;;;;;5.48;100.00;101967.66;7401409;19;20411;-47
2021/11/23 08:36:58;;;;;;;22.30;5.20;;;;;;;5.50;100.00;101965.22;7403845;19;20510;-47
2021/11/23 08:39:30;;;;;;;23.57;7.40;;;;;;;5.56;100.00;101968.28;7402409;19;20394;-46
2021/11/23 08:42:00;;;;;;;52.10;23.03;;;;;;;6.07;100.00;101967.25;7401878;19;20980;-45
2021/11/23 08:44:29;;;;;;;8.23;2.57;;;;;;;5.92;100.00;101968.56;7403642;19;20443;-44
2021/11/23 08:46:59;;;;;;;12.20;2.33;;;;;;;5.87;100.00;101964.72;7404078;19;20535;-48
2021/11/23 08:49:28;;;;;;;14.77;2.77;;;;;;;5.84;100.00;101967.06;7403524;19;20905;-47
2021/11/23 08:51:58;;;;;;;16.90;3.90;;;;;;;5.88;100.00;101963.97;7401519;19;20419;-45
2021/11/23 08:54:31;;;;;;;7.23;2.30;;;;;;;5.94;100.00;101959.31;7400560;19;20779;-46
2021/11/23 08:57:03;;;;;;;9.53;2.00;;;;;;;5.95;100.00;101963.72;7401424;19;20403;-48
2021/11/23 08:59:34;;;;;;;13.57;2.50;;;;;;;6.05;100.00;101958.56;7401882;19;20383;-46
2021/11/23 09:02:03;;;;;;;11.13;1.90;;;;;;;6.05;100.00;101955.13;7400873;19;20467;-49
2021/11/23 09:04:35;;;;;;;23.33;5.50;;;;;;;6.15;100.00;101959.31;7400161;19;20411;-47
2021/11/23 09:07:07;;;;;;;5.00;1.73;;;;;;;6.24;100.00;101959.13;7400498;19;20937;-45
2021/11/23 09:09:43;;;;;;;37.80;9.27;;;;;;;6.44;100.00;101959.00;7403374;19;20417;-45
2021/11/23 09:12:18;;;;;;;22.80;5.73;;;;;;;6.55;100.00;101956.38;7401300;19;20412;-43
2021/11/23 09:14:47;;;;;;;8.80;3.13;;;;;;;6.67;100.00;101959.88;7403099;19;20447;-45
2021/11/23 09:17:17;;;;;;;36.97;11.63;;;;;;;6.74;100.00;101956.13;7401589;19;20411;-44
2021/11/23 09:19:47;;;;;;;10.63;3.10;;;;;;;6.71;100.00;101971.25;7401860;19;20408;-46
2021/11/23 09:22:16;;;;;;;10.90;3.60;;;;;;;6.93;100.00;101973.84;7401069;19;20446;-49
2021/11/23 09:24:48;;;;;;;11.27;2.63;;;;;;;7.12;100.00;101973.53;7401305;19;20631;-47
2021/11/23 09:27:18;;;;;;;12.63;2.83;;;;;;;6.92;100.00;101981.41;7398704;19;20974;-44
2021/11/23 09:29:47;;;;;;;16.93;5.87;;;;;;;7.04;100.00;101990.03;7404503;19;20435;-45
2021/11/23 09:32:17;;;;;;;12.53;5.00;;;;;;;7.73;100.00;101995.06;7400444;19;20453;-46
2021/11/23 09:34:46;;;;;;;18.03;3.67;;;;;;;7.36;100.00;101980.38;7403264;19;20400;-44
2021/11/23 09:37:15;;;;;;;106.47;23.07;;;;;;;7.27;100.00;101988.28;7399958;19;20454;-47
2021/11/23 09:39:48;;;;;;;120.97;27.53;;;;;;;7.27;100.00;101986.63;7400807;19;20661;-46
2021/11/23 09:42:18;;;;;;;10.90;4.20;;;;;;;7.22;100.00;101980.25;7399334;19;20409;-45
2021/11/23 09:44:49;;;;;;;24.60;7.23;;;;;;;7.22;100.00;101981.94;7402351;19;20397;-44
2021/11/23 09:47:20;;;;;;;78.60;19.33;;;;;;;7.30;100.00;101975.69;7402742;19;20474;-41
2021/11/23 09:49:49;;;;;;;26.73;8.03;;;;;;;7.31;100.00;101980.06;7401655;19;20852;-44
2021/11/23 09:52:19;;;;;;;13.90;4.30;;;;;;;7.22;100.00;101979.38;7399637;19;20415;-42
2021/11/23 09:54:51;;;;;;;16.30;6.50;;;;;;;7.20;100.00;101986.03;7399924;19;20390;-45
2021/11/23 09:57:22;;;;;;;19.00;8.13;;;;;;;7.23;100.00;101982.03;7399243;19;20414;-49
2021/11/23 09:59:56;;;;;;;9.00;1.93;;;;;;;7.22;100.00;101989.66;7398216;19;20442;-48
2021/11/23 10:02:27;;;;;;;6.47;1.43;;;;;;;7.32;100.00;101989.53;7398270;19;20477;-48
2021/11/23 10:05:02;;;;;;;7.30;2.20;;;;;;;7.34;100.00;101985.41;7404821;19;20395;-49
2021/11/23 10:07:39;;;;;;;22.43;8.87;;;;;;;7.43;100.00;101990.31;7398596;19;20915;-48
2021/11/23 10:10:19;;;;;;;8.30;1.97;;;;;;;7.53;100.00;101986.75;7400229;19;20398;-49
2021/11/23 10:12:56;;;;;;;13.57;1.83;;;;;;;7.53;100.00;101987.69;7397748;19;20480;-48
2021/11/23 10:15:27;;;;;;;10.83;2.20;;;;;;;7.65;100.00;101986.78;7401563;19;20837;-45
2021/11/23 10:18:10;;;;;;;4.63;1.63;;;;;;;7.65;100.00;101987.66;7400472;19;20933;-48
2021/11/23 10:20:41;;;;;;;10.43;1.70;;;;;;;7.76;100.00;101983.34;7396642;19;20730;-48
2021/11/23 10:23:20;;;;;;;16.07;2.00;;;;;;;7.78;100.00;101988.56;7399253;19;20855;-49
2021/11/23 10:25:54;;;;;;;12.90;5.00;;;;;;;7.82;100.00;101991.50;7398322;19;20441;-48
2021/11/23 10:28:26;;;;;;;6.53;2.60;;;;;;;7.89;100.00;101987.69;7400402;19;20404;-48
2021/11/23 10:30:55;;;;;;;8.60;3.43;;;;;;;7.87;100.00;101989.25;7397436;19;20412;-50
2021/11/23 10:33:25;;;;;;;21.70;3.10;;;;;;;7.87;100.00;101990.91;7398372;19;20877;-48
2021/11/23 10:35:58;;;;;;;10.03;2.00;;;;;;;7.86;100.00;101995.19;7397320;19;20412;-49
2021/11/23 10:38:29;;;;;;;11.60;3.10;;;;;;;7.98;100.00;101987.44;7399372;19;20464;-52
2021/11/23 10:41:07;;;;;;;7.93;1.60;;;;;;;8.02;100.00;101986.00;7396070;19;20399;-52
2021/11/23 10:43:39;;;;;;;5.93;1.50;;;;;;;7.95;100.00;101993.25;7401006;19;20695;-52
2021/11/23 10:46:15;;;;;;;8.87;1.30;;;;;;;7.82;100.00;101986.34;7397739;19;20433;-49
2021/11/23 10:48:54;;;;;;;3.70;1.13;;;;;;;7.88;100.00;101995.28;7398587;19;20391;-48
2021/11/23 10:51:25;;;;;;;3.03;1.10;;;;;;;7.87;100.00;101988.34;7400849;19;20510;-49
2021/11/23 10:54:13;;;;;;;5.93;1.27;;;;;;;7.91;100.00;101991.28;7398086;19;20865;-46
2021/11/23 10:57:03;;;;;;;8.30;1.17;;;;;;;7.90;100.00;101989.47;7397017;19;20406;-43
2021/11/23 10:59:36;;;;;;;7.40;1.60;;;;;;;8.02;100.00;101988.56;7398902;19;20392;-46
2021/11/23 11:02:06;;;;;;;17.60;5.07;;;;;;;8.20;100.00;101984.75;7396914;19;20411;-45
2021/11/23 11:04:39;;;;;;;11.23;3.40;;;;;;;8.35;100.00;101991.75;7397175;19;20423;-46
2021/11/23 11:07:10;;;;;;;4.17;1.57;;;;;;;8.42;100.00;101982.78;7397539;19;20420;-48
2021/11/23 11:09:40;;;;;;;14.53;3.33;;;;;;;8.36;100.00;101980.69;7399109;19;20456;-43
2021/11/23 11:12:13;;;;;;;6.23;1.30;;;;;;;8.34;100.00;101992.53;7397092;19;20421;-45
2021/11/23 11:14:44;;;;;;;7.77;2.23;;;;;;;8.23;100.00;101989.22;7398740;19;20866;-45
2021/11/23 11:17:14;;;;;;;6.57;1.60;;;;;;;8.21;100.00;101986.53;7397122;19;20796;-44
2021/11/23 11:19:46;;;;;;;6.00;1.73;;;;;;;8.19;100.00;101982.97;7398505;19;20411;-45
2021/11/23 11:22:16;;;;;;;9.20;1.73;;;;;;;7.99;100.00;101986.66;7396954;19;20490;-45
2021/11/23 11:25:00;;;;;;;8.77;2.00;;;;;;;8.00;100.00;101980.72;7398326;19;20380;-50
2021/11/23 11:27:46;;;;;;;9.23;1.50;;;;;;;8.00;100.00;101987.56;7396792;19;20479;-50
2021/11/23 11:30:30;;;;;;;4.33;1.57;;;;;;;7.96;100.00;101989.03;7399094;19;20392;-45
2021/11/23 11:33:21;;;;;;;4.77;1.53;;;;;;;8.02;100.00;101978.28;7397038;19;20440;-50